createdAt,value
2023-03-11T00:02:03.640Z,1.90
2023-03-11T00:04:39.293Z,2.12
2023-03-11T00:07:07.637Z,2.06
2023-03-11T00:09:34.284Z,2.07
2023-03-11T00:12:02.107Z,2.09
2023-03-11T00:14:29.078Z,2.10
2023-03-11T00:17:06.798Z,2.06
2023-03-11T00:19:35.248Z,2.00
2023-03-11T00:22:03.849Z,1.97
2023-03-11T00:24:39.512Z,2.08
2023-03-11T00:27:06.844Z,2.04
2023-03-11T00:29:33.301Z,1.81
2023-03-11T00:31:59.834Z,1.94
2023-03-11T00:34:26.306Z,1.78
2023-03-11T00:36:52.852Z,1.98
2023-03-11T00:39:19.287Z,1.94
2023-03-11T00:41:45.786Z,2.03
2023-03-11T00:44:17.328Z,2.06
2023-03-11T00:46:44.449Z,2.06
2023-03-11T00:49:11.308Z,1.98
2023-03-11T00:51:37.763Z,1.82
2023-03-11T00:54:04.433Z,2.06
2023-03-11T00:56:31.145Z,1.93
2023-03-11T00:58:57.613Z,2.08
2023-03-11T01:01:24.103Z,1.99
2023-03-11T01:03:50.682Z,1.87
2023-03-11T01:06:23.456Z,1.63
2023-03-11T01:08:52.196Z,1.88
2023-03-11T01:11:18.641Z,1.92
2023-03-11T01:13:50.930Z,1.79
2023-03-11T01:16:17.386Z,1.87
2023-03-11T01:18:43.821Z,1.80
2023-03-11T01:21:18.448Z,1.91
2023-03-11T01:23:44.921Z,1.89
2023-03-11T01:26:11.433Z,1.92
2023-03-11T01:28:37.976Z,1.82
2023-03-11T01:31:06.641Z,1.76
2023-03-11T01:33:33.103Z,1.96
2023-03-11T01:35:59.776Z,1.80
2023-03-11T01:38:30.384Z,1.90
2023-03-11T01:40:56.820Z,1.99
2023-03-11T01:43:47.506Z,1.79
2023-03-11T01:46:46.498Z,1.79
2023-03-11T01:49:13.128Z,1.81
2023-03-11T01:51:45.944Z,1.86
2023-03-11T01:54:17.007Z,1.76
2023-03-11T01:56:45.460Z,1.67
2023-03-11T01:59:15.765Z,1.77
2023-03-11T02:01:50.876Z,1.69
2023-03-11T02:04:22.499Z,1.78
2023-03-11T02:06:50.675Z,1.59
2023-03-11T02:09:17.967Z,1.54
2023-03-11T02:11:44.431Z,1.71
2023-03-11T02:14:12.012Z,1.63
2023-03-11T02:16:38.466Z,1.50
2023-03-11T02:19:17.793Z,1.51
2023-03-11T02:21:45.429Z,1.58
2023-03-11T02:24:55.294Z,1.52
2023-03-11T02:27:33.577Z,1.62
2023-03-11T02:30:02.116Z,1.49
2023-03-11T02:32:29.451Z,1.54
2023-03-11T02:34:56.055Z,1.52
2023-03-11T02:37:22.564Z,1.56
2023-03-11T02:39:52.436Z,1.53
2023-03-11T02:42:32.631Z,1.65
2023-03-11T02:45:11.207Z,1.63
2023-03-11T02:47:44.968Z,1.51
2023-03-11T02:50:16.125Z,1.75
2023-03-11T02:52:52.611Z,1.67
2023-03-11T02:55:20.465Z,1.41
2023-03-11T02:57:48.142Z,1.30
2023-03-11T03:00:16.734Z,1.38
2023-03-11T03:02:44.425Z,1.56
2023-03-11T03:05:11.719Z,1.65
2023-03-11T03:07:43.175Z,1.62
2023-03-11T03:10:18.499Z,1.48
2023-03-11T03:12:45.293Z,1.46
2023-03-11T03:15:12.560Z,1.23
2023-03-11T03:17:39.845Z,1.44
2023-03-11T03:20:15.054Z,1.55
2023-03-11T03:22:42.681Z,1.44
2023-03-11T03:25:10.533Z,1.57
2023-03-11T03:27:38.881Z,1.53
2023-03-11T03:30:20.963Z,1.50
2023-03-11T03:32:47.337Z,1.44
2023-03-11T03:35:20.805Z,1.31
2023-03-11T03:37:48.667Z,1.46
2023-03-11T03:40:16.534Z,1.56
2023-03-11T03:42:43.191Z,1.36
2023-03-11T03:45:10.428Z,1.54
2023-03-11T03:47:37.240Z,1.52
2023-03-11T03:50:06.471Z,1.31
2023-03-11T03:52:33.151Z,1.48
2023-03-11T03:55:06.752Z,1.46
2023-03-11T03:57:33.630Z,1.36
2023-03-11T04:00:00.167Z,1.42
2023-03-11T04:02:37.242Z,1.52
2023-03-11T04:05:19.021Z,1.50
2023-03-11T04:07:47.077Z,1.42
2023-03-11T04:10:15.693Z,1.26
2023-03-11T04:12:42.135Z,1.34
2023-03-11T04:15:09.510Z,1.52
2023-03-11T04:17:37.269Z,1.38
2023-03-11T04:20:07.292Z,1.51
2023-03-11T04:22:40.588Z,1.29
2023-03-11T04:25:07.712Z,1.30
2023-03-11T04:27:38.384Z,1.31
2023-03-11T04:30:05.409Z,1.39
2023-03-11T04:32:31.868Z,1.39
2023-03-11T04:34:58.314Z,1.35
2023-03-11T04:37:30.677Z,1.30
2023-03-11T04:39:57.270Z,1.44
2023-03-11T04:42:23.695Z,1.53
2023-03-11T04:44:53.576Z,1.31
2023-03-11T04:47:21.734Z,1.18
2023-03-11T04:49:56.119Z,1.09
2023-03-11T04:52:22.840Z,1.13
2023-03-11T04:54:49.392Z,1.46
2023-03-11T04:57:15.908Z,1.22
2023-03-11T04:59:42.413Z,1.08
2023-03-11T05:02:09.681Z,1.28
2023-03-11T05:04:37.637Z,1.04
2023-03-11T05:07:09.351Z,1.23
2023-03-11T05:09:47.808Z,1.06
2023-03-11T05:12:14.266Z,1.20
2023-03-11T05:14:48.884Z,1.01
2023-03-11T05:17:18.626Z,1.30
2023-03-11T05:19:45.869Z,1.32
2023-03-11T05:22:21.309Z,1.16
2023-03-11T05:24:54.624Z,1.17
2023-03-11T05:27:21.296Z,0.95
2023-03-11T05:29:47.812Z,1.06
2023-03-11T05:32:16.373Z,1.12
2023-03-11T05:34:43.135Z,0.93
2023-03-11T05:37:09.657Z,0.94
2023-03-11T05:39:38.028Z,1.16
2023-03-11T05:42:05.488Z,0.94
2023-03-11T05:44:32.650Z,1.09
2023-03-11T05:46:59.787Z,0.98
2023-03-11T05:49:27.591Z,1.05
2023-03-11T05:51:55.666Z,1.04
2023-03-11T05:54:23.254Z,1.03
2023-03-11T05:56:49.684Z,1.01
2023-03-11T05:59:17.624Z,0.95
2023-03-11T06:01:47.393Z,1.03
2023-03-11T06:04:13.903Z,0.95
2023-03-11T06:06:43.939Z,0.89
2023-03-11T06:09:14.466Z,0.86
2023-03-11T06:11:47.040Z,0.92
2023-03-11T06:14:15.141Z,0.94
2023-03-11T06:16:42.290Z,1.00
2023-03-11T06:19:09.071Z,0.97
2023-03-11T06:21:35.520Z,0.91
2023-03-11T06:24:02.179Z,1.01
2023-03-11T06:26:28.797Z,0.97
2023-03-11T06:28:56.390Z,1.14
2023-03-11T06:31:28.143Z,0.96
2023-03-11T06:33:59.193Z,1.06
2023-03-11T06:36:26.394Z,0.82
2023-03-11T06:38:53.870Z,0.73
2023-03-11T06:41:26.235Z,0.38
2023-03-11T06:43:52.650Z,-0.22
2023-03-11T06:46:23.657Z,-0.28
2023-03-11T06:48:52.368Z,-0.22
2023-03-11T06:51:19.601Z,-0.19
2023-03-11T06:53:50.247Z,-0.24
2023-03-11T06:56:26.265Z,-0.14
2023-03-11T06:58:53.854Z,-0.03
2023-03-11T07:01:23.360Z,0.27
2023-03-11T07:03:51.018Z,0.40
2023-03-11T07:06:24.517Z,0.57
2023-03-11T07:08:57.295Z,0.68
2023-03-11T07:11:28.261Z,1.00
2023-03-11T07:13:55.185Z,1.20
2023-03-11T07:16:25.317Z,1.12
2023-03-11T07:18:55.396Z,1.23
2023-03-11T07:21:23.605Z,1.40
2023-03-11T07:23:55.372Z,1.81
2023-03-11T07:26:24.735Z,3.13
2023-03-11T07:28:52.794Z,4.06
2023-03-11T07:31:23.477Z,3.92
2023-03-11T07:33:50.215Z,3.34
2023-03-11T07:36:21.125Z,3.58
2023-03-11T07:38:48.402Z,5.44
2023-03-11T07:41:16.209Z,5.54
2023-03-11T07:43:43.739Z,6.55
2023-03-11T07:46:16.825Z,7.85
2023-03-11T07:48:46.742Z,8.28
2023-03-11T07:51:24.876Z,9.22
2023-03-11T07:53:53.381Z,9.89
2023-03-11T07:56:35.011Z,8.51
2023-03-11T07:59:03.396Z,7.96
2023-03-11T08:01:36.173Z,8.96
2023-03-11T08:04:14.226Z,8.54
2023-03-11T08:06:43.036Z,7.78
2023-03-11T08:09:09.872Z,7.06
2023-03-11T08:11:37.616Z,5.99
2023-03-11T08:14:04.444Z,4.83
2023-03-11T08:16:31.886Z,4.47
2023-03-11T08:19:04.485Z,4.31
2023-03-11T08:21:32.241Z,3.65
2023-03-11T08:24:02.177Z,3.61
2023-03-11T08:26:29.081Z,3.44
2023-03-11T08:29:06.265Z,3.42
2023-03-11T08:31:38.974Z,3.81
2023-03-11T08:34:09.396Z,3.91
2023-03-11T08:36:36.214Z,4.09
2023-03-11T08:39:03.504Z,4.23
2023-03-11T08:41:30.161Z,4.27
2023-03-11T08:44:13.191Z,4.56
2023-03-11T08:46:51.145Z,3.98
2023-03-11T08:49:17.762Z,4.39
2023-03-11T08:51:45.241Z,4.09
2023-03-11T08:54:11.706Z,3.66
2023-03-11T08:56:38.153Z,3.68
2023-03-11T08:59:05.880Z,3.40
2023-03-11T09:01:33.285Z,3.01
2023-03-11T09:04:07.073Z,2.97
2023-03-11T09:06:33.508Z,2.96
2023-03-11T09:09:00.018Z,3.04
2023-03-11T09:11:26.707Z,2.66
2023-03-11T09:13:57.497Z,3.06
2023-03-11T09:16:24.780Z,3.49
2023-03-11T09:18:51.343Z,3.63
2023-03-11T09:21:19.342Z,4.04
2023-03-11T09:23:46.343Z,4.23
2023-03-11T09:26:23.042Z,4.36
2023-03-11T09:28:53.488Z,4.25
2023-03-11T09:31:28.693Z,4.22
2023-03-11T09:33:56.712Z,3.99
2023-03-11T09:36:29.589Z,3.33
2023-03-11T09:39:00.921Z,3.43
2023-03-11T09:41:57.587Z,3.37
2023-03-11T09:44:50.156Z,3.32
2023-03-11T09:47:32.438Z,3.51
2023-03-11T09:50:16.609Z,4.00
2023-03-11T09:52:55.092Z,5.58
2023-03-11T09:55:32.952Z,5.35
2023-03-11T09:58:29.506Z,5.35
2023-03-11T10:01:42.934Z,4.70
2023-03-11T10:04:29.642Z,4.65
2023-03-11T10:07:10.082Z,3.92
2023-03-11T10:09:48.975Z,3.81
2023-03-11T10:12:29.684Z,3.49
2023-03-11T10:15:18.822Z,3.62
2023-03-11T10:17:51.694Z,3.87
2023-03-11T10:20:38.973Z,4.13
2023-03-11T10:23:26.115Z,3.91
2023-03-11T10:26:45.155Z,3.74
2023-03-11T10:29:31.077Z,3.84
2023-03-11T10:32:13.084Z,3.59
2023-03-11T10:34:42.505Z,3.31
2023-03-11T10:37:19.764Z,3.28
2023-03-11T10:39:48.777Z,3.30
2023-03-11T10:42:23.592Z,3.12
2023-03-11T10:44:52.493Z,2.92
2023-03-11T10:47:25.409Z,2.75
2023-03-11T10:50:04.274Z,3.09
2023-03-11T10:53:02.005Z,3.27
2023-03-11T10:55:36.097Z,3.44
2023-03-11T10:58:16.476Z,3.19
2023-03-11T11:00:43.474Z,3.33
2023-03-11T11:03:21.187Z,3.55
2023-03-11T11:05:59.104Z,3.32
2023-03-11T11:08:28.377Z,3.56
2023-03-11T11:10:59.952Z,3.57
2023-03-11T11:13:32.436Z,3.57
2023-03-11T11:16:16.886Z,3.39
2023-03-11T11:19:10.225Z,3.04
2023-03-11T11:21:53.104Z,3.40
2023-03-11T11:24:29.203Z,3.30
2023-03-11T11:27:20.442Z,3.29
2023-03-11T11:29:48.672Z,3.19
2023-03-11T11:32:15.339Z,3.16
2023-03-11T11:34:42.602Z,3.45
2023-03-11T11:37:14.552Z,3.49
2023-03-11T11:39:51.951Z,3.57
2023-03-11T11:42:30.691Z,3.67
2023-03-11T11:45:24.035Z,4.00
2023-03-11T11:47:55.909Z,3.89
2023-03-11T11:50:44.056Z,4.17
2023-03-11T11:53:25.015Z,4.23
2023-03-11T11:55:54.158Z,4.02
2023-03-11T11:58:22.836Z,4.09
2023-03-11T12:01:07.667Z,3.80
2023-03-11T12:03:37.692Z,3.63
2023-03-11T12:06:22.225Z,3.64
2023-03-11T12:09:00.876Z,3.68
2023-03-11T12:11:47.286Z,3.46
2023-03-11T12:14:33.977Z,3.67
2023-03-11T12:17:04.374Z,3.21
2023-03-11T12:19:34.857Z,3.76
2023-03-11T12:22:28.156Z,3.32
2023-03-11T12:25:04.698Z,3.44
2023-03-11T12:27:42.987Z,3.94
2023-03-11T12:30:30.254Z,3.61
2023-03-11T12:33:03.633Z,3.44
2023-03-11T12:35:34.620Z,3.87
2023-03-11T12:38:18.968Z,4.20
2023-03-11T12:40:49.568Z,4.30
2023-03-11T12:43:37.686Z,4.53
2023-03-11T12:46:09.966Z,4.56
2023-03-11T12:48:49.750Z,4.69
2023-03-11T12:51:34.641Z,4.82
2023-03-11T12:54:27.496Z,4.71
2023-03-11T12:57:01.458Z,4.63
2023-03-11T13:00:18.202Z,4.64
2023-03-11T13:03:16.682Z,5.02
2023-03-11T13:06:22.622Z,4.83
2023-03-11T13:08:54.765Z,4.38
2023-03-11T13:11:42.860Z,4.39
2023-03-11T13:14:29.958Z,4.34
2023-03-11T13:17:17.096Z,4.28
2023-03-11T13:19:50.275Z,4.11
2023-03-11T13:22:41.446Z,3.96
2023-03-11T13:25:29.782Z,3.91
2023-03-11T13:28:33.917Z,3.71
2023-03-11T13:31:34.174Z,3.90
2023-03-11T13:34:03.479Z,3.98
2023-03-11T13:36:52.285Z,3.94
2023-03-11T13:39:34.097Z,3.93
2023-03-11T13:42:39.793Z,4.06
2023-03-11T13:45:27.358Z,4.02
2023-03-11T13:48:40.581Z,3.69
2023-03-11T13:51:34.212Z,3.65
2023-03-11T13:54:14.902Z,3.76
2023-03-11T13:56:49.245Z,3.84
2023-03-11T13:59:35.761Z,3.72
2023-03-11T14:02:09.120Z,3.80
2023-03-11T14:04:54.000Z,3.92
2023-03-11T14:07:24.354Z,3.98
2023-03-11T14:09:50.922Z,3.80
2023-03-11T14:12:19.165Z,3.73
2023-03-11T14:15:13.122Z,3.80
2023-03-11T14:17:39.741Z,3.74
2023-03-11T14:20:09.487Z,3.68
2023-03-11T14:22:54.895Z,3.68
2023-03-11T14:25:26.102Z,3.81
2023-03-11T14:27:56.271Z,3.97
2023-03-11T14:30:32.699Z,3.97
2023-03-11T14:33:18.375Z,3.90
2023-03-11T14:36:07.036Z,3.71
2023-03-11T14:38:33.797Z,3.65
2023-03-11T14:41:03.418Z,3.58
2023-03-11T14:43:45.964Z,3.51
2023-03-11T14:46:25.494Z,3.27
2023-03-11T14:49:04.314Z,3.21
2023-03-11T14:51:36.240Z,3.13
2023-03-11T14:54:17.617Z,3.03
2023-03-11T14:56:51.218Z,3.07
2023-03-11T14:59:26.942Z,3.06
2023-03-11T15:01:58.173Z,3.14
2023-03-11T15:04:34.386Z,3.21
2023-03-11T15:07:04.439Z,3.23
2023-03-11T15:09:41.795Z,3.19
2023-03-11T15:12:30.568Z,3.24
2023-03-11T15:15:26.580Z,3.42
2023-03-11T15:18:01.150Z,3.27
2023-03-11T15:20:30.977Z,3.30
2023-03-11T15:23:05.384Z,3.23
2023-03-11T15:25:39.072Z,3.24
2023-03-11T15:28:22.355Z,3.24
2023-03-11T15:30:48.932Z,3.06
2023-03-11T15:33:33.897Z,3.14
2023-03-11T15:36:00.428Z,3.10
2023-03-11T15:38:28.520Z,3.12
2023-03-11T15:41:02.987Z,3.33
2023-03-11T15:43:29.355Z,3.31
2023-03-11T15:45:57.572Z,3.22
2023-03-11T15:48:29.030Z,3.30
2023-03-11T15:50:57.953Z,3.31
2023-03-11T15:53:27.337Z,3.20
2023-03-11T15:56:03.880Z,3.03
2023-03-11T15:58:33.820Z,3.15
2023-03-11T16:01:00.254Z,3.02
2023-03-11T16:03:29.094Z,3.05
2023-03-11T16:05:56.684Z,3.14
2023-03-11T16:08:23.115Z,2.95
2023-03-11T16:10:49.539Z,2.93
2023-03-11T16:13:16.371Z,2.81
2023-03-11T16:15:45.788Z,2.81
2023-03-11T16:18:20.336Z,2.86
2023-03-11T16:20:55.048Z,2.87
2023-03-11T16:23:26.962Z,2.84
2023-03-11T16:25:55.810Z,2.68
2023-03-11T16:28:35.573Z,2.50
2023-03-11T16:31:02.216Z,2.60
2023-03-11T16:33:28.714Z,2.54
2023-03-11T16:35:55.282Z,2.59
2023-03-11T16:38:26.958Z,2.61
2023-03-11T16:41:01.474Z,2.65
2023-03-11T16:43:33.836Z,2.72
2023-03-11T16:46:00.316Z,2.75
2023-03-11T16:48:26.817Z,2.77
2023-03-11T16:50:53.261Z,2.73
2023-03-11T16:53:19.739Z,2.71
2023-03-11T16:55:48.593Z,2.76
2023-03-11T16:58:15.113Z,2.87
2023-03-11T17:00:42.238Z,2.67
2023-03-11T17:03:12.444Z,2.59
2023-03-11T17:05:39.013Z,2.68
2023-03-11T17:08:06.750Z,2.55
2023-03-11T17:10:43.388Z,2.64
2023-03-11T17:13:12.745Z,2.59
2023-03-11T17:15:44.441Z,2.63
2023-03-11T17:18:11.727Z,2.60
2023-03-11T17:20:40.107Z,2.57
2023-03-11T17:23:07.710Z,2.52
2023-03-11T17:25:34.142Z,2.43
2023-03-11T17:28:01.685Z,2.42
2023-03-11T17:30:36.863Z,2.31
2023-03-11T17:33:03.997Z,2.20
2023-03-11T17:35:30.475Z,2.13
2023-03-11T17:37:57.015Z,2.12
2023-03-11T17:40:24.546Z,2.11
2023-03-11T17:42:51.054Z,2.16
2023-03-11T17:45:19.587Z,2.24
2023-03-11T17:47:48.126Z,2.00
2023-03-11T17:50:14.619Z,2.22
2023-03-11T17:52:41.286Z,2.23
2023-03-11T17:55:08.388Z,2.21
2023-03-11T17:57:42.926Z,2.19
2023-03-11T18:00:19.443Z,2.21
2023-03-11T18:02:45.903Z,2.19
2023-03-11T18:05:12.369Z,2.31
2023-03-11T18:07:41.551Z,2.30
2023-03-11T18:10:09.159Z,2.29
2023-03-11T18:12:35.604Z,2.33
2023-03-11T18:15:08.088Z,2.32
2023-03-11T18:17:35.506Z,2.15
2023-03-11T18:20:08.229Z,2.24
2023-03-11T18:22:35.489Z,2.29
2023-03-11T18:25:02.057Z,2.19
2023-03-11T18:27:28.489Z,2.06
2023-03-11T18:29:54.896Z,2.19
2023-03-11T18:32:21.443Z,2.02
2023-03-11T18:34:51.312Z,2.24
2023-03-11T18:37:17.822Z,2.06
2023-03-11T18:39:44.250Z,1.97
2023-03-11T18:42:15.839Z,1.90
2023-03-11T18:44:42.441Z,2.08
2023-03-11T18:47:09.325Z,1.92
2023-03-11T18:49:43.541Z,2.00
2023-03-11T18:52:10.178Z,2.00
2023-03-11T18:54:36.606Z,1.92
2023-03-11T18:57:03.132Z,1.89
2023-03-11T18:59:29.661Z,1.78
2023-03-11T19:01:56.133Z,1.93
2023-03-11T19:04:22.724Z,1.96
2023-03-11T19:06:50.211Z,1.99
2023-03-11T19:09:20.706Z,1.93
2023-03-11T19:11:47.151Z,1.88
2023-03-11T19:14:13.579Z,1.81
2023-03-11T19:16:40.194Z,1.83
2023-03-11T19:19:06.701Z,1.89
2023-03-11T19:21:33.104Z,1.91
2023-03-11T19:24:02.657Z,1.81
2023-03-11T19:26:43.622Z,1.78
2023-03-11T19:29:15.288Z,1.64
2023-03-11T19:31:43.687Z,1.38
2023-03-11T19:34:10.253Z,1.55
2023-03-11T19:36:42.819Z,1.44
2023-03-11T19:39:09.485Z,1.48
2023-03-11T19:41:35.982Z,1.60
2023-03-11T19:44:04.212Z,1.73
2023-03-11T19:46:34.409Z,1.61
2023-03-11T19:49:00.948Z,1.58
2023-03-11T19:51:32.865Z,1.43
2023-03-11T19:54:05.660Z,1.41
2023-03-11T19:56:32.181Z,1.47
2023-03-11T19:58:58.632Z,1.42
2023-03-11T20:01:28.184Z,1.41
2023-03-11T20:03:54.590Z,1.47
2023-03-11T20:06:22.718Z,1.39
2023-03-11T20:08:50.389Z,1.24
2023-03-11T20:11:17.121Z,1.17
2023-03-11T20:13:44.591Z,1.09
2023-03-11T20:16:18.356Z,1.04
2023-03-11T20:18:53.153Z,0.61
2023-03-11T20:21:19.749Z,0.61
2023-03-11T20:23:46.269Z,0.82
2023-03-11T20:26:15.258Z,0.90
2023-03-11T20:28:42.223Z,1.10
2023-03-11T20:31:11.809Z,0.93
2023-03-11T20:33:38.826Z,0.87
2023-03-11T20:36:09.761Z,0.77
2023-03-11T20:38:36.354Z,0.54
2023-03-11T20:41:08.395Z,0.38
2023-03-11T20:43:36.015Z,0.42
2023-03-11T20:46:03.494Z,0.41
2023-03-11T20:48:37.756Z,0.49
2023-03-11T20:51:07.331Z,0.43
2023-03-11T20:53:34.158Z,0.49
2023-03-11T20:56:07.198Z,0.35
2023-03-11T20:58:33.836Z,0.18
2023-03-11T21:01:00.371Z,0.14
2023-03-11T21:03:27.246Z,0.05
2023-03-11T21:05:53.818Z,0.25
2023-03-11T21:08:20.400Z,0.36
2023-03-11T21:10:46.873Z,0.23
2023-03-11T21:13:13.321Z,0.30
2023-03-11T21:15:39.808Z,0.44
2023-03-11T21:18:06.998Z,0.48
2023-03-11T21:20:33.480Z,0.43
2023-03-11T21:22:59.921Z,0.25
2023-03-11T21:25:26.453Z,0.27
2023-03-11T21:27:53.019Z,0.01
2023-03-11T21:30:19.720Z,0.10
2023-03-11T21:32:46.224Z,0.17
2023-03-11T21:35:12.869Z,0.07
2023-03-11T21:37:39.457Z,0.04
2023-03-11T21:40:07.539Z,0.01
2023-03-11T21:42:34.212Z,-0.03
2023-03-11T21:45:00.797Z,-0.31
2023-03-11T21:47:27.319Z,-0.16
2023-03-11T21:49:53.808Z,-0.10
2023-03-11T21:52:20.296Z,-0.06
2023-03-11T21:54:46.707Z,0.02
2023-03-11T21:57:14.001Z,0.09
2023-03-11T21:59:40.508Z,-0.07
2023-03-11T22:02:13.069Z,-0.23
2023-03-11T22:04:39.619Z,-0.36
2023-03-11T22:07:06.503Z,-0.51
2023-03-11T22:09:33.022Z,-0.47
2023-03-11T22:11:59.588Z,-0.58
2023-03-11T22:14:26.367Z,-0.69
2023-03-11T22:16:53.094Z,-0.69
2023-03-11T22:19:20.078Z,-0.63
2023-03-11T22:21:54.094Z,-0.63
2023-03-11T22:24:20.625Z,-0.61
2023-03-11T22:26:52.824Z,-0.68
2023-03-11T22:29:19.325Z,-0.68
2023-03-11T22:31:46.213Z,-0.72
2023-03-11T22:34:12.680Z,-0.85
2023-03-11T22:36:39.344Z,-0.85
2023-03-11T22:39:05.829Z,-0.77
2023-03-11T22:41:33.043Z,-0.84
2023-03-11T22:43:59.579Z,-0.85
2023-03-11T22:46:28.801Z,-1.09
2023-03-11T22:48:55.337Z,-0.94
2023-03-11T22:51:21.806Z,-0.89
2023-03-11T22:53:48.258Z,-0.73
2023-03-11T22:56:16.892Z,-0.66
2023-03-11T22:58:43.927Z,-0.93
2023-03-11T23:01:10.863Z,-0.84
2023-03-11T23:03:37.695Z,-0.67
2023-03-11T23:06:08.504Z,-0.60
2023-03-11T23:08:35.731Z,-0.71
2023-03-11T23:11:04.104Z,-0.62
2023-03-11T23:13:31.546Z,-0.71
2023-03-11T23:16:04.602Z,-0.65
2023-03-11T23:18:31.099Z,-0.82
2023-03-11T23:21:00.661Z,-0.90
2023-03-11T23:23:27.118Z,-0.87
2023-03-11T23:25:53.778Z,-0.88
2023-03-11T23:28:21.469Z,-0.86
2023-03-11T23:30:48.020Z,-0.92
2023-03-11T23:33:14.515Z,-1.00
2023-03-11T23:35:42.115Z,-1.04
2023-03-11T23:38:09.208Z,-0.97
2023-03-11T23:40:39.967Z,-0.94
2023-03-11T23:43:06.418Z,-0.85
2023-03-11T23:45:34.858Z,-0.88
2023-03-11T23:48:01.306Z,-0.95
2023-03-11T23:50:27.742Z,-1.00
2023-03-11T23:52:55.229Z,-1.17
2023-03-11T23:55:21.643Z,-0.99
2023-03-11T23:57:48.169Z,-0.96
